Time;durP1;ratioP1;P1;durP2;ratioP2;P2;SDS_P1;SDS_P2;PMS_P1;PMS_P2;Temp;Humidity;BMP_temperature;BMP_pressure;BME280_temperature;BME280_humidity;BME280_pressure;Samples;Min_cycle;Max_cycle;Signal;HPM_P1;HPM_P2
2022/04/23 00:00:14;;;;;;;7.97;1.60;;;14.50;69.50;;;14.68;49.60;94007.59;5060852;28;20483;-56
2022/04/23 00:02:42;;;;;;;6.53;2.30;;;14.50;68.70;;;14.67;49.73;94019.22;5052065;28;20466;-56
2022/04/23 00:05:10;;;;;;;2.00;1.87;;;14.50;69.30;;;14.65;49.59;94013.25;5055214;28;20474;-56
2022/04/23 00:07:38;;;;;;;4.23;2.17;;;14.50;69.90;;;14.64;49.37;94014.28;5057539;28;20562;-55
2022/04/23 00:10:06;;;;;;;9.77;2.30;;;14.50;69.60;;;14.66;49.45;94009.63;5058842;28;20497;-56
2022/04/23 00:12:33;;;;;;;2.10;1.90;;;14.50;68.90;;;14.66;49.50;94009.63;5060383;28;20494;-56
2022/04/23 00:15:01;;;;;;;6.80;2.00;;;14.50;69.10;;;14.67;49.32;94005.13;5055598;28;21066;-54
2022/04/23 00:17:29;;;;;;;2.90;2.40;;;14.50;68.90;;;14.65;49.62;94007.97;5058752;28;20462;-56
2022/04/23 00:19:56;;;;;;;6.83;2.40;;;14.50;68.90;;;14.63;49.83;94007.34;5056996;28;20470;-55
2022/04/23 00:22:23;;;;;;;5.63;2.37;;;14.50;70.10;;;14.59;49.80;94008.69;5057118;28;20505;-55
2022/04/23 00:24:50;;;;;;;12.17;1.80;;;14.40;69.20;;;14.58;49.98;94003.56;5054192;28;20463;-57
2022/04/23 00:27:18;;;;;;;3.13;2.27;;;14.50;69.80;;;14.57;49.57;94004.59;5057001;28;20462;-54
2022/04/23 00:29:45;;;;;;;4.80;1.70;;;14.40;69.10;;;14.54;49.75;94005.78;5053307;28;20463;-55
2022/04/23 00:32:14;;;;;;;3.50;2.13;;;14.40;69.30;;;14.54;49.71;94005.78;5053836;28;20716;-54
2022/04/23 00:34:41;;;;;;;4.23;2.27;;;14.40;69.30;;;14.53;50.10;93999.66;5055202;28;20521;-56
2022/04/23 00:37:09;;;;;;;3.33;2.57;;;14.40;70.00;;;14.53;50.32;93998.84;5050445;28;20468;-55
2022/04/23 00:39:36;;;;;;;3.83;2.13;;;14.40;70.80;;;14.51;50.03;93999.00;5054060;28;20455;-57
2022/04/23 00:42:08;;;;;;;8.13;2.73;;;14.30;70.50;;;14.48;49.81;94001.22;5056088;28;20455;-54
2022/04/23 00:44:36;;;;;;;12.93;2.13;;;14.30;69.60;;;14.47;49.70;94002.25;5053242;28;20451;-56
2022/04/23 00:47:04;;;;;;;4.90;1.97;;;14.30;69.60;;;14.46;50.12;94000.59;5056314;28;20464;-57
2022/04/23 00:49:34;;;;;;;6.03;2.30;;;14.30;70.10;;;14.46;50.15;94004.06;5057952;28;20538;-56
2022/04/23 00:52:01;;;;;;;6.37;1.90;;;14.30;70.30;;;14.46;49.74;94008.53;5055810;28;20516;-53
2022/04/23 00:54:28;;;;;;;6.00;2.53;;;14.30;69.70;;;14.48;49.56;94017.09;5059165;28;20544;-55
2022/04/23 00:56:56;;;;;;;3.47;1.90;;;14.30;69.40;;;14.51;49.67;94011.44;5056720;28;20832;-56
2022/04/23 00:59:23;;;;;;;1.77;1.63;;;14.30;69.00;;;14.55;49.40;94017.16;5052960;28;20464;-56
2022/04/23 01:01:53;;;;;;;4.23;2.50;;;14.40;69.00;;;14.56;49.83;94003.75;5049996;28;20755;-55
2022/04/23 01:04:20;;;;;;;2.70;1.80;;;14.40;69.20;;;14.61;49.62;94014.66;5055663;28;20470;-55
2022/04/23 01:06:49;;;;;;;2.80;1.57;;;14.40;69.20;;;14.63;49.23;94004.69;5056496;28;20475;-55
2022/04/23 01:09:16;;;;;;;2.57;1.50;;;14.50;69.00;;;14.66;49.30;94003.50;5056764;28;20984;-56
2022/04/23 01:11:43;;;;;;;3.73;1.50;;;14.50;68.80;;;14.68;49.19;94002.28;5056428;28;20475;-55
2022/04/23 01:14:10;;;;;;;5.20;2.00;;;14.50;68.40;;;14.72;49.02;94001.94;5058441;28;20489;-55
2022/04/23 01:16:38;;;;;;;2.03;1.70;;;14.50;68.30;;;14.73;49.17;94001.75;5056624;28;20530;-53
2022/04/23 01:19:05;;;;;;;4.53;1.87;;;14.60;68.30;;;14.77;49.30;94004.84;5056797;28;21023;-55
2022/04/23 01:21:34;;;;;;;3.57;1.97;;;14.60;68.40;;;14.78;49.31;93996.72;5055692;28;20479;-56
2022/04/23 01:24:01;;;;;;;3.10;2.00;;;14.60;68.30;;;14.79;49.17;94001.00;5054887;28;20566;-55
2022/04/23 01:26:29;;;;;;;4.70;2.40;;;14.60;68.50;;;14.81;49.07;94009.59;5053952;28;20528;-55
2022/04/23 01:28:57;;;;;;;3.43;1.70;;;14.60;68.30;;;14.83;49.17;94012.03;5048489;28;20455;-56
2022/04/23 01:31:24;;;;;;;11.53;2.73;;;14.60;68.50;;;14.82;49.39;94005.09;5052353;28;20490;-55
2022/04/23 01:33:51;;;;;;;11.47;1.80;;;14.70;68.90;;;14.80;49.47;94005.28;5053201;28;20486;-55
2022/04/23 01:36:19;;;;;;;4.23;1.67;;;14.70;68.70;;;14.78;49.74;94012.59;5060295;28;20479;-55
2022/04/23 01:38:47;;;;;;;2.30;1.80;;;14.60;69.00;;;14.73;49.50;94007.03;5060637;28;20456;-55
2022/04/23 01:41:14;;;;;;;5.80;1.77;;;14.60;69.20;;;14.65;49.82;94004.50;5058260;28;20939;-55
2022/04/23 01:43:42;;;;;;;2.23;1.83;;;14.50;69.50;;;14.55;50.49;94010.06;5061042;28;20451;-57
2022/04/23 01:46:09;;;;;;;3.23;2.10;;;14.40;70.40;;;14.47;50.46;94015.47;5060178;28;20481;-55
2022/04/23 01:48:36;;;;;;;7.43;2.93;;;14.30;71.00;;;14.40;50.63;94014.56;5061374;28;20462;-55
2022/04/23 01:51:04;;;;;;;5.87;2.40;;;14.30;71.10;;;14.35;50.63;94010.63;5058783;28;20575;-55
2022/04/23 01:53:32;;;;;;;10.53;2.37;;;14.30;71.40;;;14.33;50.85;94004.72;5056851;28;20497;-55
2022/04/23 01:56:00;;;;;;;6.97;2.23;;;14.20;71.50;;;14.32;50.63;94008.34;5054754;28;21030;-55
2022/04/23 01:58:27;;;;;;;5.73;2.07;;;14.20;71.70;;;14.33;50.94;94012.66;5056299;28;20888;-54
2022/04/23 02:00:55;;;;;;;5.43;2.33;;;14.20;71.40;;;14.37;50.55;94012.28;5060186;28;20855;-56
2022/04/23 02:03:23;;;;;;;13.07;1.77;;;14.20;71.50;;;14.39;50.63;94010.28;5056967;28;20868;-58
2022/04/23 02:05:50;;;;;;;3.10;1.77;;;14.20;71.10;;;14.42;50.50;94007.25;5060764;28;20561;-55
2022/04/23 02:08:17;;;;;;;6.20;1.67;;;14.30;71.30;;;14.45;50.65;94006.88;5060048;28;20459;-56
2022/04/23 02:10:45;;;;;;;5.43;1.87;;;14.30;71.10;;;14.48;50.88;94011.81;5056026;28;20998;-56
2022/04/23 02:13:14;;;;;;;8.40;2.57;;;14.30;71.60;;;14.49;50.91;94014.25;5060789;28;20486;-55
2022/04/23 02:15:41;;;;;;;6.53;2.20;;;14.30;71.60;;;14.49;50.92;94018.75;5061138;28;20482;-55
2022/04/23 02:18:09;;;;;;;3.50;1.70;;;14.30;71.80;;;14.48;51.04;94012.66;5053927;28;20467;-54
2022/04/23 02:20:36;;;;;;;1.80;1.70;;;14.30;71.80;;;14.46;50.84;94019.94;5053935;28;20516;-56
2022/04/23 02:23:04;;;;;;;6.83;1.83;;;14.30;71.90;;;14.43;50.93;94015.00;5054067;28;20505;-54
2022/04/23 02:25:35;;;;;;;13.60;1.97;;;14.30;72.20;;;14.40;51.09;94014.56;5057134;28;21060;-54
2022/04/23 02:28:02;;;;;;;10.63;1.90;;;14.30;72.20;;;14.38;51.24;94013.94;5061756;28;20438;-57
2022/04/23 02:30:32;;;;;;;4.70;2.20;;;14.30;72.10;;;14.41;51.09;94008.28;5058639;28;20556;-56
2022/04/23 02:32:59;;;;;;;4.63;1.80;;;14.30;71.90;;;14.45;50.68;94023.59;5058665;28;20469;-55
2022/04/23 02:35:26;;;;;;;9.43;2.70;;;14.30;71.60;;;14.49;50.80;94013.47;5059264;28;20898;-56
2022/04/23 02:37:56;;;;;;;5.30;1.80;;;14.30;71.50;;;14.54;50.85;94024.28;5057740;28;21239;-53
2022/04/23 02:40:23;;;;;;;2.07;1.80;;;14.40;71.70;;;14.58;50.56;94025.59;5059961;28;20558;-57
2022/04/23 02:42:51;;;;;;;3.07;2.23;;;14.40;71.70;;;14.60;50.55;94020.94;5057983;28;21053;-56
2022/04/23 02:45:20;;;;;;;9.47;2.70;;;14.40;71.70;;;14.62;50.97;94031.34;5056621;28;20543;-55
2022/04/23 02:47:50;;;;;;;3.73;1.80;;;14.50;72.00;;;14.62;50.81;94026.84;5054590;28;20538;-56
2022/04/23 02:50:24;;;;;;;2.27;1.90;;;14.40;71.70;;;14.60;50.88;94018.28;5055286;28;20485;-54
2022/04/23 02:52:51;;;;;;;5.00;2.37;;;14.40;71.60;;;14.57;50.82;94020.47;5058034;28;20462;-56
2022/04/23 02:55:19;;;;;;;1.93;1.83;;;14.40;71.60;;;14.55;51.02;94018.00;5058454;28;20494;-55
2022/04/23 02:57:46;;;;;;;5.50;2.40;;;14.40;72.10;;;14.53;51.22;94023.50;5056218;28;20443;-55
2022/04/23 03:00:14;;;;;;;3.50;2.20;;;14.40;72.50;;;14.50;51.02;94015.06;5058443;28;20475;-55
2022/04/23 03:02:41;;;;;;;10.43;2.40;;;14.40;72.60;;;14.47;51.22;94013.63;5061577;28;20458;-55
2022/04/23 03:05:12;;;;;;;4.40;2.17;;;14.30;72.70;;;14.44;51.50;94010.56;5059295;28;20522;-55
2022/04/23 03:07:39;;;;;;;2.90;2.17;;;14.30;72.70;;;14.42;51.78;94005.44;5056246;28;20508;-53
2022/04/23 03:10:09;;;;;;;4.03;2.43;;;14.30;73.70;;;14.40;51.45;94003.97;5057803;28;20472;-56
2022/04/23 03:12:36;;;;;;;9.77;2.30;;;14.30;73.30;;;14.38;51.67;94006.00;5052030;28;20456;-56
2022/04/23 03:15:04;;;;;;;2.70;2.17;;;14.20;73.60;;;14.36;52.18;94006.19;5054565;28;20929;-57
2022/04/23 03:17:32;;;;;;;8.40;1.90;;;14.20;74.00;;;14.34;52.14;94006.38;5054300;28;20852;-56
2022/04/23 03:19:59;;;;;;;4.50;2.33;;;14.20;74.70;;;14.31;51.94;94006.75;5054042;28;20506;-56
2022/04/23 03:22:27;;;;;;;5.00;2.17;;;14.20;74.00;;;14.29;52.04;94014.00;5055360;28;20544;-56
2022/04/23 03:24:55;;;;;;;3.53;2.07;;;14.10;74.60;;;14.26;52.55;94011.75;5059122;28;20478;-56
2022/04/23 03:27:22;;;;;;;2.53;2.13;;;14.10;75.00;;;14.24;52.53;94010.31;5059379;28;20459;-57
2022/04/23 03:29:49;;;;;;;8.10;2.23;;;14.10;75.10;;;14.20;52.53;94007.19;5057022;28;20463;-54
2022/04/23 03:32:17;;;;;;;7.30;2.03;;;14.10;75.20;;;14.18;52.76;94018.97;5060453;28;20946;-57
2022/04/23 03:34:44;;;;;;;4.03;2.50;;;14.10;75.70;;;14.15;52.52;94030.72;5055707;28;20490;-56
2022/04/23 03:37:12;;;;;;;4.07;2.10;;;14.00;75.60;;;14.10;53.08;94033.91;5061124;28;20948;-56
2022/04/23 03:39:40;;;;;;;3.63;2.00;;;14.00;75.70;;;14.06;52.81;94035.28;5050965;28;20479;-55
2022/04/23 03:42:08;;;;;;;2.30;2.10;;;13.90;76.20;;;14.02;52.82;94044.59;5049171;28;20819;-57
2022/04/23 03:44:35;;;;;;;2.90;2.20;;;13.90;75.50;;;13.97;53.03;94044.28;5057509;28;21088;-55
2022/04/23 03:47:03;;;;;;;2.30;2.07;;;13.90;76.40;;;13.96;53.16;94045.31;5055807;28;20986;-56
2022/04/23 03:49:30;;;;;;;12.93;2.60;;;13.80;76.50;;;13.93;53.71;94046.47;5057360;28;20510;-56
2022/04/23 03:51:57;;;;;;;4.90;2.57;;;13.80;77.00;;;13.92;53.85;94044.00;5059075;28;20550;-57
2022/04/23 03:54:25;;;;;;;3.07;2.77;;;13.80;77.40;;;13.91;53.74;94045.84;5060836;28;20498;-58
2022/04/23 03:56:54;;;;;;;3.97;2.20;;;13.80;77.90;;;13.91;53.53;94045.00;5054705;28;21621;-57
2022/04/23 03:59:23;;;;;;;5.00;2.40;;;13.80;78.00;;;13.89;53.28;94050.47;5058328;28;20537;-56
2022/04/23 04:01:53;;;;;;;8.63;2.80;;;13.80;77.50;;;13.89;53.39;94055.75;5053234;28;20878;-56
2022/04/23 04:04:20;;;;;;;9.00;2.80;;;13.80;77.30;;;13.89;53.75;94058.41;5053159;28;20470;-57
2022/04/23 04:06:47;;;;;;;4.60;1.97;;;13.80;78.00;;;13.90;54.08;94052.13;5052472;28;20486;-55
2022/04/23 04:09:14;;;;;;;2.20;2.00;;;13.80;78.50;;;13.91;53.86;94053.78;5053817;28;21010;-55
2022/04/23 04:14:28;;;;;;;8.10;2.37;;;13.80;78.40;;;13.92;53.64;94060.69;5052790;28;20694;-56
2022/04/23 04:16:55;;;;;;;7.20;3.13;;;13.80;78.00;;;13.92;53.88;94065.16;5053944;28;21044;-56
2022/04/23 04:19:22;;;;;;;16.63;3.10;;;13.80;78.40;;;13.92;53.67;94057.25;5058100;28;20452;-56
2022/04/23 04:21:49;;;;;;;6.33;2.43;;;13.80;78.40;;;13.94;53.70;94064.00;5056011;28;20860;-56
2022/04/23 04:24:17;;;;;;;2.90;2.70;;;13.80;78.50;;;13.95;54.04;94062.97;5057128;28;20516;-56
2022/04/23 04:26:45;;;;;;;3.80;2.07;;;13.80;78.10;;;13.97;53.17;94060.16;5055429;28;20510;-55
2022/04/23 04:29:12;;;;;;;19.27;3.10;;;13.80;77.90;;;13.99;53.50;94061.63;5054690;28;21108;-56
2022/04/23 04:31:51;;;;;;;7.27;2.87;;;13.80;77.80;;;14.00;53.36;94067.72;5057225;28;20463;-56
2022/04/23 04:34:21;;;;;;;3.37;3.07;;;13.80;77.40;;;14.01;53.06;94073.84;5056950;28;20471;-56
2022/04/23 04:36:49;;;;;;;5.10;2.87;;;13.90;77.60;;;14.03;53.71;94074.47;5056936;28;20476;-56
2022/04/23 04:39:16;;;;;;;10.80;4.03;;;13.90;78.60;;;14.06;54.00;94079.41;5052983;28;20531;-56
2022/04/23 04:41:44;;;;;;;10.10;3.13;;;13.90;79.40;;;14.10;53.92;94089.44;5055154;28;20557;-55
2022/04/23 04:44:11;;;;;;;7.43;3.20;;;13.90;79.40;;;14.13;54.37;94077.69;5055073;28;20455;-56
2022/04/23 04:46:39;;;;;;;11.37;3.87;;;14.00;79.90;;;14.16;54.45;94087.91;5057674;28;20959;-55
2022/04/23 04:49:09;;;;;;;14.90;3.87;;;14.00;79.90;;;14.19;54.86;94092.84;5054136;28;20990;-57
2022/04/23 04:51:36;;;;;;;10.80;3.23;;;14.10;80.40;;;14.21;54.52;94101.41;5056407;28;20492;-55
2022/04/23 04:54:04;;;;;;;8.23;2.87;;;14.10;79.90;;;14.24;54.71;94097.59;5054275;28;20495;-56
2022/04/23 04:56:37;;;;;;;8.70;3.70;;;14.10;80.00;;;14.27;54.50;94105.97;5057951;28;21077;-55
2022/04/23 04:59:05;;;;;;;10.77;3.70;;;14.10;79.90;;;14.32;54.44;94113.34;5045705;28;20463;-56
2022/04/23 05:01:32;;;;;;;11.60;4.10;;;14.10;79.90;;;14.33;54.34;94128.25;5055420;28;20471;-56
2022/04/23 05:04:00;;;;;;;10.87;3.73;;;14.20;80.00;;;14.32;54.24;94127.41;5060519;28;21042;-56
2022/04/23 05:06:28;;;;;;;7.17;3.10;;;14.20;80.00;;;14.35;54.88;94140.25;5056697;28;20487;-56
2022/04/23 05:08:55;;;;;;;7.10;3.30;;;14.20;80.20;;;14.35;54.60;94140.25;5053704;28;20824;-56
2022/04/23 05:11:24;;;;;;;12.57;5.03;;;14.20;80.70;;;14.35;55.14;94145.56;5051492;28;20593;-56
2022/04/23 05:13:53;;;;;;;4.00;3.10;;;14.20;81.60;;;14.35;55.25;94150.84;5048056;28;20550;-56
2022/04/23 05:16:20;;;;;;;9.00;3.20;;;14.20;81.90;;;14.35;55.76;94150.03;5053593;28;20546;-55
2022/04/23 05:18:47;;;;;;;3.30;2.60;;;14.20;83.20;;;14.37;56.70;94152.50;5054038;28;20451;-56
2022/04/23 05:21:15;;;;;;;7.57;3.20;;;14.20;85.00;;;14.40;57.05;94160.06;5052731;28;20487;-56
2022/04/23 05:23:43;;;;;;;4.57;2.67;;;14.20;85.80;;;14.42;57.05;94163.34;5054582;28;20494;-56
2022/04/23 05:26:11;;;;;;;8.87;2.60;;;14.30;85.90;;;14.49;57.70;94156.34;5052974;28;20942;-57
2022/04/23 05:28:39;;;;;;;6.77;2.70;;;14.30;86.90;;;14.56;57.59;94165.19;5052574;28;20831;-57
2022/04/23 05:31:06;;;;;;;6.47;2.80;;;14.40;86.50;;;14.61;57.80;94162.84;5056468;28;20487;-57
2022/04/23 05:33:33;;;;;;;4.37;2.50;;;14.40;87.50;;;14.74;57.89;94172.00;5055782;28;20886;-57
2022/04/23 05:36:01;;;;;;;4.90;3.23;;;14.50;87.40;;;14.84;57.47;94169.88;5055970;28;20491;-54
2022/04/23 05:38:28;;;;;;;3.03;2.83;;;14.60;87.20;;;14.94;58.05;94170.41;5055200;28;20447;-56
2022/04/23 05:40:57;;;;;;;4.37;2.57;;;14.70;88.10;;;15.02;58.17;94169.50;5054702;28;20474;-56
2022/04/23 05:43:24;;;;;;;5.03;2.50;;;14.80;88.30;;;15.15;57.91;94168.84;5054487;28;20457;-56
2022/04/23 05:45:52;;;;;;;4.80;2.57;;;14.90;87.90;;;15.25;58.08;94166.72;5055481;28;20479;-57
2022/04/23 05:48:19;;;;;;;4.87;2.97;;;15.00;88.30;;;15.36;57.70;94158.28;5053319;28;20474;-56
2022/04/23 05:50:46;;;;;;;3.77;2.80;;;15.20;88.20;;;15.48;57.61;94157.81;5057219;28;20489;-55
2022/04/23 05:53:14;;;;;;;6.17;2.80;;;15.30;88.00;;;15.62;57.66;94153.47;5058999;28;20752;-57
2022/04/23 05:55:41;;;;;;;4.90;2.60;;;15.40;88.20;;;15.79;57.58;94151.44;5057038;28;20502;-58
2022/04/23 05:58:10;;;;;;;7.33;3.60;;;15.50;87.90;;;15.97;57.60;94154.44;5056425;28;20447;-56
2022/04/23 06:00:37;;;;;;;9.40;2.90;;;15.70;87.90;;;16.10;57.21;94149.25;5049923;28;20475;-53
2022/04/23 06:03:05;;;;;;;3.23;2.93;;;15.90;87.90;;;16.25;57.04;94148.34;5054647;28;20450;-57
2022/04/23 06:05:33;;;;;;;5.50;2.70;;;16.00;87.90;;;16.44;56.88;94150.31;5052035;28;20478;-57
2022/04/23 06:08:00;;;;;;;2.80;2.20;;;16.10;87.30;;;16.62;56.59;94152.50;5057375;28;20467;-57
2022/04/23 06:10:27;;;;;;;4.90;2.30;;;16.40;87.30;;;16.79;56.32;94155.66;5055659;28;20486;-56
2022/04/23 06:12:55;;;;;;;5.73;3.20;;;16.50;86.70;;;16.99;56.07;94163.75;5054857;28;20454;-55
2022/04/23 06:15:23;;;;;;;4.23;2.97;;;16.70;86.10;;;17.22;55.77;94159.16;5056567;28;20494;-56
2022/04/23 06:17:50;;;;;;;4.70;2.80;;;16.90;85.40;;;17.44;55.58;94171.28;5059598;28;20880;-55
2022/04/23 06:20:18;;;;;;;5.50;2.80;;;17.10;85.00;;;17.58;54.18;94168.69;5060310;28;20532;-57
2022/04/23 06:22:45;;;;;;;6.00;2.30;;;17.30;82.20;;;17.69;54.27;94170.75;5059792;28;20450;-57
2022/04/23 06:25:12;;;;;;;2.30;2.10;;;17.40;83.40;;;17.86;53.99;94169.38;5056593;28;20482;-55
2022/04/23 06:27:40;;;;;;;2.57;2.13;;;17.60;82.90;;;18.08;53.68;94158.56;5058273;28;20447;-57
2022/04/23 06:30:09;;;;;;;8.10;2.13;;;17.80;82.50;;;18.29;53.71;94162.88;5059958;28;20467;-56
2022/04/23 06:32:38;;;;;;;4.03;1.70;;;17.90;81.30;;;18.50;52.49;94164.50;5058062;28;20551;-57
2022/04/23 06:35:06;;;;;;;3.20;1.80;;;18.10;80.40;;;18.63;51.71;94163.66;5055496;28;20490;-56
2022/04/23 06:37:41;;;;;;;8.30;2.87;;;18.30;78.40;;;18.71;52.38;94170.63;5054767;28;20463;-56
2022/04/23 06:40:11;;;;;;;5.47;1.93;;;18.40;78.90;;;18.79;52.25;94162.41;5055432;28;20486;-56
2022/04/23 06:42:39;;;;;;;3.63;2.20;;;18.50;78.50;;;18.92;51.94;94162.41;5057048;28;20969;-57
2022/04/23 06:45:07;;;;;;;4.20;1.77;;;18.60;78.30;;;19.06;51.18;94163.19;5054311;28;20496;-55
2022/04/23 06:47:34;;;;;;;9.53;2.30;;;18.70;76.80;;;19.19;51.68;94162.31;5054757;28;20460;-57
2022/04/23 06:50:04;;;;;;;3.93;2.13;;;18.90;77.50;;;19.38;51.28;94165.13;5055217;28;20554;-55
2022/04/23 06:52:32;;;;;;;5.00;2.50;;;19.00;76.70;;;19.58;51.08;94171.22;5052981;28;20978;-55
2022/04/23 06:54:59;;;;;;;10.23;2.70;;;19.20;76.80;;;19.81;50.65;94164.53;5053291;28;20490;-57
2022/04/23 06:57:27;;;;;;;3.77;2.40;;;19.40;75.80;;;20.02;50.40;94169.53;5053572;28;20504;-56
2022/04/23 06:59:54;;;;;;;4.07;1.67;;;19.60;75.70;;;20.23;50.25;94171.03;5053064;28;20464;-57
2022/04/23 07:02:21;;;;;;;4.00;2.43;;;19.80;75.30;;;20.41;49.92;94167.59;5053424;28;20462;-56
2022/04/23 07:04:49;;;;;;;4.30;2.63;;;20.00;75.00;;;20.60;48.13;94178.34;5053179;28;20494;-56
2022/04/23 07:07:17;;;;;;;6.37;2.87;;;20.20;71.80;;;20.75;48.92;94170.03;5054059;28;20466;-59
2022/04/23 07:09:44;;;;;;;3.83;1.93;;;20.40;72.40;;;20.89;48.60;94181.41;5052896;28;20470;-56
2022/04/23 07:12:13;;;;;;;3.97;2.27;;;20.50;71.60;;;21.00;48.00;94178.00;5054990;28;20579;-56
2022/04/23 07:14:40;;;;;;;6.50;2.87;;;20.60;70.40;;;21.10;47.74;94175.63;5055724;28;20459;-54
2022/04/23 07:17:07;;;;;;;2.80;1.87;;;20.80;70.70;;;21.27;47.63;94188.41;5053993;28;20852;-55
2022/04/23 07:19:40;;;;;;;7.30;2.57;;;20.90;69.50;;;21.40;46.70;94187.44;5059900;28;20517;-56
2022/04/23 07:22:07;;;;;;;10.40;3.20;;;21.00;67.80;;;21.54;46.29;94188.13;5059872;28;20466;-57
2022/04/23 07:24:37;;;;;;;5.40;3.13;;;21.20;67.10;;;21.69;46.48;94188.56;5060473;28;20813;-57
2022/04/23 07:27:05;;;;;;;2.27;2.00;;;21.30;66.80;;;21.85;45.67;94195.94;5058213;28;20458;-57
2022/04/23 07:29:32;;;;;;;2.77;2.23;;;21.50;64.20;;;21.96;44.94;94198.91;5060225;28;20486;-57
2022/04/23 07:31:59;;;;;;;5.13;1.90;;;21.60;62.50;;;22.02;44.56;94206.03;5058894;28;20978;-58
2022/04/23 07:39:59;;;;;;;4.70;2.20;;;21.70;60.00;;;21.76;45.00;94216.03;5059072;28;20487;-55
2022/04/23 07:42:27;;;;;;;12.80;2.70;;;21.60;61.60;;;21.62;45.47;94222.63;5057832;28;20837;-57
2022/04/23 07:44:54;;;;;;;7.50;2.37;;;21.40;62.90;;;21.40;46.22;94223.03;5059066;28;20517;-56
2022/04/23 07:47:22;;;;;;;9.20;3.27;;;21.20;63.90;;;21.37;46.43;94231.50;5055894;28;20971;-57
2022/04/23 07:49:49;;;;;;;11.43;3.47;;;21.10;64.40;;;21.35;46.27;94230.91;5057315;28;20484;-56
2022/04/23 07:52:16;;;;;;;3.47;1.87;;;21.10;64.40;;;21.29;46.67;94229.13;5047387;28;20455;-54
2022/04/23 07:54:44;;;;;;;3.63;2.57;;;21.00;65.40;;;21.43;46.72;94229.81;5054618;28;20455;-56
2022/04/23 07:57:12;;;;;;;10.37;2.00;;;21.10;65.90;;;21.62;46.57;94241.34;5053586;28;20454;-56
2022/04/23 07:59:41;;;;;;;10.73;2.17;;;21.30;65.80;;;21.78;46.03;94243.44;5055075;28;20462;-55
2022/04/23 08:02:08;;;;;;;4.53;2.30;;;21.40;65.00;;;21.99;45.56;94235.94;5055745;28;20537;-56
2022/04/23 08:04:35;;;;;;;14.83;2.20;;;21.60;64.10;;;22.25;45.78;94248.16;5055111;28;20447;-57
2022/04/23 08:07:03;;;;;;;9.00;1.90;;;21.90;63.80;;;22.53;44.98;94244.88;5057600;28;20451;-57
2022/04/23 08:09:31;;;;;;;7.33;2.00;;;22.10;62.20;;;22.78;44.72;94245.75;5059233;28;20466;-56
2022/04/23 08:11:58;;;;;;;6.70;1.30;;;22.50;62.50;;;22.95;43.99;94246.72;5055987;28;20450;-57
2022/04/23 08:14:27;;;;;;;2.80;1.70;;;22.60;59.80;;;23.01;42.94;94247.66;5060297;28;20537;-57
2022/04/23 08:16:54;;;;;;;2.67;1.20;;;22.80;59.30;;;23.03;42.92;94253.59;5059834;28;20483;-63
2022/04/23 08:19:22;;;;;;;3.70;1.70;;;22.80;58.70;;;23.08;43.37;94251.88;5058615;28;20447;-57
2022/04/23 08:21:49;;;;;;;5.80;1.17;;;22.90;58.80;;;23.15;42.86;94256.31;5058069;28;20473;-56
2022/04/23 08:24:18;;;;;;;4.07;1.10;;;22.90;57.90;;;23.09;42.48;94256.19;5053695;28;20545;-56
2022/04/23 08:26:46;;;;;;;2.97;1.37;;;22.80;56.90;;;22.99;42.26;94257.78;5055415;28;20829;-57
2022/04/23 08:31:59;;;;;;;4.40;1.67;;;22.70;57.50;;;22.88;42.33;94246.81;5048718;28;20446;-55
2022/04/23 08:34:26;;;;;;;8.10;1.80;;;22.60;57.40;;;22.76;42.42;94250.53;5050597;28;20470;-56
2022/04/23 08:36:54;;;;;;;3.30;1.37;;;22.50;57.20;;;22.80;43.06;94252.50;5053410;28;20486;-55
2022/04/23 08:39:21;;;;;;;12.73;1.30;;;22.50;57.60;;;22.92;42.80;94261.38;5050524;28;20461;-57
2022/04/23 08:41:48;;;;;;;2.37;1.30;;;22.60;56.90;;;23.02;42.50;94254.63;5057046;28;20467;-56
2022/04/23 08:44:16;;;;;;;4.03;1.60;;;22.70;56.60;;;23.08;41.74;94262.63;5054499;28;21002;-55
2022/04/23 08:46:44;;;;;;;3.00;1.60;;;22.70;56.30;;;23.10;41.95;94254.34;5057170;28;20484;-55
2022/04/23 08:49:14;;;;;;;2.90;1.40;;;22.70;55.80;;;23.05;41.69;94254.16;5058037;28;20987;-55
2022/04/23 08:51:45;;;;;;;1.70;1.00;;;22.70;55.50;;;22.93;41.27;94259.53;5057898;28;20486;-56
2022/04/23 08:54:13;;;;;;;3.80;1.03;;;22.70;54.20;;;22.69;42.09;94264.84;5057280;28;20459;-56
2022/04/23 08:56:41;;;;;;;3.53;1.43;;;22.50;55.30;;;22.42;41.83;94253.72;5055086;28;20491;-57
2022/04/23 08:59:09;;;;;;;4.17;1.07;;;22.30;54.70;;;22.12;41.86;94259.88;5056231;28;20500;-56
2022/04/23 09:01:37;;;;;;;1.40;1.10;;;22.00;55.30;;;21.92;42.48;94254.78;5052639;28;20471;-57
2022/04/23 09:04:05;;;;;;;2.10;0.90;;;21.70;56.00;;;21.74;42.74;94249.44;5053509;28;20447;-55
2022/04/23 09:06:42;;;;;;;2.40;1.40;;;21.50;55.80;;;21.57;42.77;94255.41;5056854;28;20482;-56
2022/04/23 09:09:14;;;;;;;3.33;1.40;;;21.30;56.40;;;21.43;43.34;94265.41;5053331;28;20440;-57
2022/04/23 09:11:43;;;;;;;2.23;1.27;;;21.20;56.80;;;21.32;43.38;94250.09;5058066;28;21097;-56
2022/04/23 09:14:23;;;;;;;1.80;0.97;;;21.10;57.20;;;21.26;43.66;94256.31;5055805;28;20458;-57
2022/04/23 09:25:10;;;;;;;1.90;1.30;;;21.00;58.10;;;21.29;43.83;94255.88;5058534;28;20539;-58
2022/04/23 09:27:37;;;;;;;12.63;2.67;;;21.00;58.20;;;21.26;44.07;94256.31;5057258;28;20452;-58
2022/04/23 09:30:06;;;;;;;2.40;1.43;;;21.00;58.30;;;21.20;44.08;94246.50;5058936;28;20455;-58
2022/04/23 09:32:34;;;;;;;2.80;1.50;;;20.90;58.30;;;21.14;44.22;94259.72;5061150;28;20862;-57
2022/04/23 09:35:11;;;;;;;1.93;0.93;;;20.80;58.30;;;21.13;44.61;94258.09;5058226;28;20540;-57
2022/04/23 09:40:37;;;;;;;3.37;1.60;;;20.80;59.20;;;21.30;45.05;94241.44;5035257;28;20459;-57
2022/04/23 09:43:05;;;;;;;3.10;1.30;;;21.00;59.70;;;21.48;44.85;94244.13;5049418;28;20538;-57
2022/04/23 09:45:33;;;;;;;8.63;1.63;;;21.10;60.40;;;21.71;44.69;94242.69;5050112;28;20463;-56
2022/04/23 09:48:16;;;;;;;3.83;2.07;;;21.30;59.70;;;21.98;43.93;94236.97;5055582;28;20455;-57
2022/04/23 09:50:45;;;;;;;8.00;1.43;;;21.60;59.10;;;22.23;43.86;94228.00;5057651;28;20886;-56
2022/04/23 09:53:16;;;;;;;10.23;1.40;;;21.80;58.60;;;22.44;42.94;94221.34;5057769;28;21016;-58
2022/04/23 09:55:45;;;;;;;3.23;1.60;;;22.00;58.00;;;22.55;42.83;94221.34;5056366;28;20480;-58
2022/04/23 09:58:13;;;;;;;4.13;1.67;;;22.10;57.30;;;22.59;42.04;94220.88;5060225;28;20490;-57
2022/04/23 10:00:41;;;;;;;4.50;1.40;;;22.20;56.40;;;22.72;42.34;94213.44;5062214;28;20485;-56
2022/04/23 10:03:09;;;;;;;4.90;1.43;;;22.30;57.10;;;22.85;42.28;94212.44;5060112;28;20458;-56
2022/04/23 10:05:39;;;;;;;7.37;1.87;;;22.50;56.60;;;22.90;42.03;94211.72;5060696;28;20483;-58
2022/04/23 10:08:13;;;;;;;7.33;1.40;;;22.50;55.60;;;22.84;41.63;94208.09;5060939;28;20501;-57
2022/04/23 10:10:44;;;;;;;12.30;2.10;;;22.50;55.60;;;22.86;42.21;94215.91;5059891;28;20558;-56
2022/04/23 10:13:13;;;;;;;8.07;2.27;;;22.50;55.90;;;22.99;41.92;94223.75;5060490;28;21082;-54
2022/04/23 10:15:45;;;;;;;6.87;2.03;;;22.60;56.20;;;23.21;42.09;94213.25;5062606;28;20572;-58
2022/04/23 10:18:12;;;;;;;6.43;2.13;;;22.80;56.10;;;23.38;41.78;94207.19;5059883;28;20814;-56
2022/04/23 10:20:40;;;;;;;7.47;2.23;;;22.90;55.80;;;23.47;41.22;94211.13;5061392;28;21006;-57
2022/04/23 10:23:17;;;;;;;3.80;2.23;;;23.10;55.60;;;23.61;41.25;94201.75;5051976;28;20546;-56
2022/04/23 10:25:50;;;;;;;24.63;4.63;;;23.20;55.40;;;23.72;41.61;94213.53;5057948;28;20470;-57
2022/04/23 10:28:18;;;;;;;17.30;5.77;;;23.30;55.20;;;23.72;41.69;94210.00;5057620;28;20447;-58
2022/04/23 10:30:47;;;;;;;28.37;6.40;;;23.30;55.70;;;23.75;41.88;94201.47;5059533;28;20478;-56
2022/04/23 10:33:28;;;;;;;14.23;4.20;;;23.40;56.10;;;23.80;42.42;94207.78;5058239;28;20542;-58
2022/04/23 10:36:08;;;;;;;4.17;1.70;;;23.50;56.30;;;23.89;42.08;94213.63;5060361;28;20506;-55
2022/04/23 10:38:42;;;;;;;5.80;2.43;;;23.60;56.30;;;24.02;41.61;94211.72;5061554;28;20454;-58
2022/04/23 10:41:11;;;;;;;16.90;4.67;;;23.60;55.40;;;24.05;40.90;94224.66;5061018;28;20892;-58
2022/04/23 10:43:49;;;;;;;12.10;3.30;;;23.70;54.90;;;24.10;40.55;94212.13;5060267;28;20473;-56